Aviation Digital Data Service (ADDS)

Output produced by METARs form (1210 UTC 15 November 2018)
found at http://www.aviationweather.gov/metar/data/
 
EGAA 151150Z 17012KT 9999 BKN016 13/10 Q1010
TAF EGAA 151103Z 1512/1612 18020G33KT 9999 FEW012 SCT025 
     BECMG 1513/1516 24015KT 
     TEMPO 1514/1518 6000 RA -RADZ BKN012 
     BECMG 1516/1519 17008KT 
     PROB30 
     TEMPO 1602/1609 BKN012
       
EGYE 151050Z 17009KT 6000 HZ BKN007 OVC009 ///// Q1020 GRN
EGPL 151150Z 16028G39KT 9999 VCSH FEW005 BKN016 13/11 Q1002
TAF EGPL 151100Z 1512/1517 16025KT 9999 SCT020 
     TEMPO 1512/1517 6000 RA BKN007 
     PROB40 
     TEMPO 1512/1515 17028G38KT 
     BECMG 1515/1517 20025G35KT
       
EGUB 151150Z 16010KT 9999 BKN012 13/11 Q1020 GRN NOSIG
TAF EGUB 151057Z 1512/1521 17008KT 9999 BKN012 
     BECMG 1514/1517 BKN006 
     PROB40 
     TEMPO 1515/1521 4000 -DZ 
     TEMPO 1519/1521 SCT004 
     PROB30 
     TEMPO 1520/1521 FEW004 BKN020
       
EGKB 151150Z 15008KT 1800 BR BKN004 13/12 Q1021
TAF EGKB 151108Z 1512/1521 15007KT 5000 BR BKN006 
     PROB30 
     TEMPO 1512/1513 2500 BKN002 
     BECMG 1515/1518 3000 BKN004
       
EGBB 151150Z 16010KT 9999 FEW013 12/09 Q1019
TAF EGBB 151106Z 1512/1612 17009KT 9999 SCT012 BKN018 
     BECMG 1515/1518 BKN012 
     TEMPO 1518/1612 6000 BKN006 
     PROB30 
     TEMPO 1602/1610 3000 BR BKN003
       
EGNH 151150Z 14017KT CAVOK 13/10 Q1017
TAF EGNH 151059Z 1512/1521 14016KT 9999 FEW030 
     TEMPO 1517/1521 BKN010 
     PROB30 1518/1521 6000 BKN007
       
EGDM 151150Z 16011KT 9999 OVC006 13/12 Q1019 YLO1 BECMG 5000 BR BKN004 YLO2
TAF AMD EGDM 151154Z 1512/1519 16008KT 9999 BKN006 
     BECMG 1512/1514 5000 BR BKN004 
     BECMG 1515/1517 1200 BR OVC002 
     PROB40 1516/1519 0600 FG OVC000
       
EGHH 151150Z 15009KT 110V190 2500 BR BKN003 13/12 Q1019
TAF AMD EGHH 151207Z 1512/1521 15006KT 9999 BKN018 
     TEMPO 1512/1520 3000 BR BKN003
       
EGGD 151150Z AUTO 13009KT 9999 OVC007 11/11 Q1019
TAF EGGD 151106Z 1512/1612 14008KT 9999 BKN009 
     TEMPO 1512/1516 8000 SCT010 BKN016 
     BECMG 1516/1519 7000 BKN004 
     TEMPO 1519/1605 4000 BR SCT004 
     PROB40 
     TEMPO 1605/1611 0300 FG OVC001
       
EGVN 151150Z 19007KT 9999 SCT015 14/10 Q1019 WHT TEMPO FEW015 BLU
TAF EGVN 151027Z 1512/1612 18005KT 9999 BKN016 
     PROB40 1512/1515 FEW018 
     BECMG 1515/1518 BKN010 
     BECMG 1518/1521 4000 BR BKN005 
     PROB40 1521/1603 1500 BR BKN002 
     PROB40 1603/1608 0500 FG OVC000 
     BECMG 1610/1612 8000 HZ BKN009
       
EGCK 151150Z 17016G26KT 9999 FEW037 15/08 Q1015
TAF EGCK 151059Z 1512/1521 17015KT 9999 FEW030 
     TEMPO 1512/1514 17018G28KT 
     TEMPO 1517/1521 8000 -RA BKN008 
     BECMG 1518/1521 15005KT 
     PROB30 
     TEMPO 1518/1521 4000 RADZ BKN004
       
EGSC 151150Z 18012KT 9999 BKN017 14/10 Q1021
TAF EGSC 151109Z 1512/1521 16006KT 9999 SCT020 
     TEMPO 1512/1521 BKN012 
     PROB30 
     TEMPO 1515/1521 BKN008
       
EGEC 151150Z 16030KT 9999 SCT016 13/10 Q1009
TAF EGEC 151059Z 1512/1518 15027KT 9999 FEW012 SCT020 
     TEMPO 1512/1515 16030G42KT BKN012 
     BECMG 1515/1518 18017KT 
     TEMPO 1515/1518 6000 RA BKN014 
     PROB30 
     TEMPO 1515/1517 3000 +RA BKN008
       
EGFF 151150Z AUTO 12011KT 9999 SCT013 12/11 Q1018
TAF EGFF 151106Z 1512/1612 11009KT 9999 SCT020 
     PROB30 
     TEMPO 1512/1515 BKN012 
     TEMPO 1515/1606 BKN012 
     PROB30 
     TEMPO 1518/1610 8000 BKN008
       
EGLC 151150Z AUTO 12004KT 5000 HZ OVC007 14/13 Q1021
TAF EGLC 151108Z 1512/1521 13006KT 8000 BKN008 
     PROB30 
     TEMPO 1512/1516 9999 SCT012 
     BECMG 1516/1519 3000 BR BKN004
       
EGAC 151150Z AUTO 18020KT 9999 BKN015/// 14/11 Q1011
TAF EGAC 151101Z 1512/1521 18022G35KT 9999 FEW012 BKN025 
     TEMPO 1514/1519 6000 RA -RADZ BKN012 
     BECMG 1515/1518 21010KT
       
EGXC 151150Z 19010KT 9999 BKN016 13/10 Q1020 WHT TEMPO FEW016 BLU
TAF EGXC 151035Z 1512/1606 17008KT 9999 BKN014 
     PROB40 
     TEMPO 1512/1517 FEW010 SCT025 
     BECMG 1519/1522 5000 BR 
     BECMG 1522/1601 3000 FEW010 
     PROB30 1523/1606 0300 FG VV///
       
EGTC 151150Z 18009KT 9999 SCT016 14/11 Q1020
TAF EGTC 151109Z 1512/1519 18007KT 9999 SCT015 
     TEMPO 1512/1519 BKN012 
     PROB30 
     TEMPO 1515/1519 BKN008
       
EGYD 151150Z 18011KT 9999 BKN012 11/09 Q1020 GRN NOSIG
TAF AMD EGYD 151115Z 1511/1519 16008KT 6000 BR BKN010 
     BECMG 1511/1513 9999 NSW 
     TEMPO 1512/1517 SCT018
       
EGDR 151150Z 13012KT 0800 -DZ SCT000 BKN002 11/10 Q1017 RED NOSIG
TAF EGDR 151041Z 1512/1521 15012KT 7000 HZ BKN006 OVC010 
     TEMPO 1512/1520 2000 BR BKN004 
     PROB40 
     TEMPO 1513/1520 0800 DZ FG SCT000 BKN001 
     BECMG 1520/1521 16008KT 5000 HZ BKN002
       
EGPN 151150Z VRB02KT CAVOK 13/10 Q1013
TAF AMD EGPN 151200Z 1512/1521 18007KT 9999 FEW045 
     PROB40 
     TEMPO 1519/1521 21018G28KT 8000 -RA
       
EGPD 151150Z 17015KT CAVOK 12/07 Q1013 NOSIG
TAF EGPD 151101Z 1512/1612 16012KT 9999 SCT020 
     TEMPO 1514/1520 18018G28KT
       
EGNX 151150Z 18010KT 9999 SCT013 11/09 Q1019
TAF EGNX 151106Z 1512/1612 18010KT 9999 SCT012 BKN018 
     BECMG 1515/1518 BKN012 
     TEMPO 1518/1612 6000 BKN006 
     PROB30 
     TEMPO 1602/1606 4000 BR BKN004
       
EGPH 151150Z 19006KT CAVOK 14/06 Q1013
TAF EGPH 151101Z 1512/1612 19009KT 9999 SCT015 
     PROB30 
     TEMPO 1515/1520 20015G25KT 
     TEMPO 1518/1521 8000 -RA BKN012 
     PROB40 
     TEMPO 1603/1609 8000 -RA BKN012
       
EGTE 151150Z 16006KT 9999 BKN012 13/12 Q1018
TAF EGTE 151109Z 1512/1521 16007KT 9999 BKN018 
     TEMPO 1512/1521 8000 BKN012 
     PROB30 
     TEMPO 1513/1521 BKN008
       
EGVA 151156Z AUTO 18010KT 9999 BKN016 14/10 A3010 RMK AO2 BKN V SCT SLP197 T01370099 10137 20103 58004 $
EGLF 151150Z 13005KT 110V170 9000 BKN010 13/12 Q1020
TAF AMD EGLF 151203Z 1512/1521 14005KT 9999 BKN010 
     TEMPO 1512/1515 6000 BKN009 
     TEMPO 1515/1518 4000 BR BKN004 
     PROB30 
     TEMPO 1518/1521 3000 BR BKN004
       
EGKK 151150Z 14004KT 110V180 5000 HZ BKN006 14/13 Q1021
TAF AMD EGKK 151135Z 1512/1618 13005KT 7000 BKN008 
     TEMPO 1512/1520 3000 BR BKN004 
     BECMG 1520/1523 2000 BR BKN003 
     PROB40 
     TEMPO 1521/1610 1200 -DZ BKN001 
     BECMG 1610/1613 07010KT 6000 NSW BKN007 
     PROB40 
     TEMPO 1615/1618 4000 BR BKN004
       
EGPF 151150Z AUTO 16009KT 9999 NCD 13/08 Q1013
TAF EGPF 151101Z 1512/1612 17012KT 9999 BKN018 
     PROB40 
     TEMPO 1512/1518 19015G25KT 
     TEMPO 1516/1520 7000 RA BKN012 
     BECMG 1518/1521 VRB05KT 
     PROB40 
     TEMPO 1605/1609 8000 -RA BKN014
       
EGBJ 151150Z 16007KT 9999 FEW016 14/10 Q1019
TAF EGBJ 151109Z 1512/1520 16005KT 9999 FEW010 BKN020 
     TEMPO 1515/1520 BKN008
       
EGNR 151150Z 16011KT 9999 SCT015 11/09 Q1017
TAF EGNR 151059Z 1512/1521 16014KT 9999 FEW012 SCT020 
     PROB30 
     TEMPO 1512/1518 BKN012 
     TEMPO 1518/1521 6000 BKN010 
     PROB30 
     TEMPO 1518/1521 BKN008
       
EGLL 151150Z AUTO 16006KT 120V210 8000 OVC009 14/12 Q1021 NOSIG
TAF AMD EGLL 151131Z 1512/1618 16004KT 9999 BKN012 
     TEMPO 1512/1515 6000 BKN008 
     TEMPO 1515/1519 5000 BR BKN005 
     PROB40 1519/1611 1400 -DZ BKN002 
     BECMG 1521/1524 5000 BR BKN005 
     BECMG 1609/1612 09010KT 
     BECMG 1611/1614 BKN010 
     PROB30 
     TEMPO 1614/1618 BKN005
       
EGNJ 151150Z 18013KT 4500 HZ FEW009 BKN010 12/10 Q1019
TAF EGNJ 151059Z 1512/1521 19009KT 4500 HZ FEW008 SCT010 
     BECMG 1512/1515 9999 NSW 
     PROB40 
     TEMPO 1512/1518 BKN008 
     BECMG 1518/1521 6000 FEW003 BKN006 
     PROB40 1519/1521 3000 BR BKN003
       
EGPE 151150Z 16009KT 120V220 9999 BKN025 14/10 Q1009
TAF EGPE 151100Z 1512/1521 16009KT 9999 SCT040 
     BECMG 1512/1515 22012KT 
     PROB40 
     TEMPO 1515/1518 22027G37KT 
     PROB30 
     TEMPO 1518/1521 8000 -RA
       
EGPI 151150Z 15024G34KT 120V180 9999 FEW013 13/10 Q1008
TAF EGPI 151059Z 1512/1519 15024KT 9999 FEW012 SCT020 
     TEMPO 1512/1514 16025G35KT BKN012 
     BECMG 1514/1517 20017KT 
     TEMPO 1514/1518 6000 RA BKN014 
     PROB30 
     TEMPO 1514/1516 3000 +RA BKN008
       
EGTK 151150Z 19010KT 7000 SCT016 13/11 Q1020
TAF EGTK 151109Z 1512/1521 16005KT 9999 BKN012 
     TEMPO 1512/1521 7000 BKN018 
     PROB30 
     TEMPO 1515/1521 BKN008
       
EGQK 151150Z AUTO 19011KT 9999 BKN028/// 15/10 Q1009
EGPA 151150Z 17018KT 9999 FEW014 12/10 Q1009
TAF EGPA 151100Z 1512/1521 16018KT 9999 SCT040 
     TEMPO 1512/1518 17022G35KT 
     BECMG 1518/1521 22012KT 
     PROB30 
     TEMPO 1518/1521 8000 -RA
       
EGUL 151156Z 19007KT 9999 FEW019 15/10 A3013 RMK AO2A SLP206 T01480100 10149 20113 58008 $
TAF AMD EGUL 150855Z 1508/1609 18009KT 9999 BKN025 QNH3012INS 
     BECMG 1516/1517 17009KT 8000 BR BKN010 QNH3013INS 
     BECMG 1519/1520 17009KT 5000 BR BKN006 QNH3018INS 
     BECMG 1523/1524 15006KT 3200 BR BKN003 QNH3019INS TX14/1513Z TN06/1603Z
       
EGNM 151150Z 17006KT CAVOK 11/08 Q1018
TAF EGNM 151106Z 1512/1612 16006KT 8000 FEW004 
     TEMPO 1519/1603 3000 BR BKN002 
     PROB30 
     TEMPO 1519/1603 0300 FG OVC000 
     BECMG 1603/1606 0300 FG OVC000 
     PROB30 
     TEMPO 1606/1612 1500 BR OVC002
       
EGXE 151150Z 16008KT 4500 HZ FEW001 08/08 Q1018 GRN BECMG 8000 BLU
TAF EGXE 151048Z 1512/1519 16010KT 5000 BR FEW003 
     BECMG 1512/1513 9999 NSW
       
EGQL 151150Z 19007KT CAVOK 14/07 Q1013 BLU
TAF EGQL 151022Z 1512/1521 18008KT 9999 FEW018 
     PROB40 
     TEMPO 1512/1521 20016G26KT 
     PROB30 
     TEMPO 1519/1521 6000 RA SCT018
       
EGXU 151150Z 17009KT 9999 FEW013 12/09 Q1018 BLU TEMPO SCT013 GRN
TAF EGXU 151045Z 1512/1518 16008KT 8000 HZ FEW007 
     PROB30 
     TEMPO 1512/1518 BKN008
       
EGGP 151150Z 16011KT 9999 BKN013 12/09 Q1017
TAF EGGP 151100Z 1512/1612 16009KT 9999 FEW030 
     TEMPO 1512/1517 BKN012 
     TEMPO 1517/1612 6000 FEW004 BKN010 
     PROB40 
     TEMPO 1600/1609 3000 BR BKN004
       
EGAE 151150Z 17019G30KT 9999 FEW025 SCT030 14/09 Q1006
TAF EGAE 151101Z 1512/1521 17020G35KT 9999 FEW012 BKN020 
     BECMG 1512/1515 21013KT 
     TEMPO 1512/1515 6000 RA BKN012
       
EGQS 151150Z 17014KT 9999 FEW026 14/10 Q1009 BLU NOSIG
TAF EGQS 151055Z 1512/1606 17012KT 9999 FEW030 
     TEMPO 1512/1520 19018G32KT 
     PROB30 
     TEMPO 1518/1520 27018G32KT 4000 RADZ SCT014 BKN020
       
EGGW 151150Z AUTO 17009KT 140V210 9999 BKN012 13/11 Q1020
TAF EGGW 151106Z 1512/1612 16007KT 8000 OVC012 
     TEMPO 1512/1515 9999 BKN016 
     BECMG 1515/1518 4000 BR BKN003 
     PROB40 1518/1524 0300 FG OVC001 
     BECMG 1600/1603 0300 FG OVC000 
     PROB30 
     TEMPO 1603/1610 1500 BR OVC002 
     BECMG 1610/1612 4000 BR OVC002
       
EGMD 151150Z 16009KT 1500 BR OVC001 11/11 Q1022
TAF AMD EGMD 151134Z 1512/1521 16008KT 4000 BR BKN006 
     TEMPO 1512/1521 1200 BKN001
       
EGCC 151150Z AUTO 18007KT 130V210 9999 NCD 13/08 Q1018 NOSIG
TAF EGCC 151100Z 1512/1618 17006KT 9999 FEW030 
     TEMPO 1517/1611 6000 FEW006 BKN010 
     PROB30 
     TEMPO 1600/1609 3000 BR BKN006
       
EGYM 151150Z 16011KT 9999 FEW018 14/10 Q1020 BLU NOSIG
TAF EGYM 151036Z 1512/1521 17007KT 9999 FEW016 BKN025 
     TEMPO 1512/1517 SCT016 
     BECMG 1517/1520 4000 BR SCT005 BKN008 
     PROB40 1520/1521 2000 BR SCT003
       
EGUN 151156Z AUTO 17010KT 9999 SCT019 14/14 A3013 RMK AO2 SLP206 T01440144 10146 20112 58007
TAF AMD EGUN 151009Z 1510/1610 14006KT 8000 BR OVC025 QNH3013INS 
     BECMG 1518/1519 15009KT 5000 BR BKN015 QNH3014INS 
     BECMG 1521/1522 15006KT 5000 BR BKN002 QNH3019INS TX14/1514Z TN09/1606Z
       
EGNT 151150Z 15006KT 100V180 CAVOK 10/06 Q1016
TAF EGNT 151100Z 1512/1612 17008KT 9999 FEW040 
     BECMG 1518/1521 6000 
     TEMPO 1520/1611 3000 BR BKN004 
     PROB30 1601/1609 0300 FG BKN001 
     TEMPO 1611/1612 BKN008
       
EGWU 151150Z 17006KT 9000 HZ OVC010 14/12 Q1020 GRN NOSIG
TAF EGWU 151055Z 1512/1606 16005KT 9999 BKN012 
     PROB40 
     TEMPO 1512/1516 FEW012 BKN018 
     BECMG 1516/1519 7000 BR 
     BECMG 1520/1523 3000 BR BKN005 
     PROB30 1523/1606 2000 BR MIFG BKN004
       
EGSH 151150Z 16006KT 140V200 8000 FEW006 SCT024 14/12 Q1021 NOSIG
TAF AMD EGSH 151207Z 1512/1521 18004KT 9999 BKN020 
     TEMPO 1512/1515 8000 SCT020 
     PROB30 
     TEMPO 1516/1521 BKN004
       
EGVO 151150Z 16007KT 9999 BKN007 OVC020 13/12 Q1020 GRN TEMPO 5000 BR BKN006 OVC020 YLO1
TAF EGVO 151037Z 1512/1524 17006KT 9999 BKN010 
     BECMG 1513/1516 6000 BR BKN006 
     PROB30 
     TEMPO 1516/1521 4000 -DZ SCT004 
     PROB40 
     TEMPO 1521/1524 0500 FG OVC001
       
EGPK 151150Z 12008KT 080V190 9999 FEW020 12/08 Q1013
TAF EGPK 151101Z 1512/1612 17012KT 9999 SCT015 BKN020 
     TEMPO 1512/1518 17020G30KT 
     TEMPO 1517/1520 7000 RA BKN012 
     BECMG 1518/1521 VRB05KT 
     PROB30 
     TEMPO 1605/1608 9000 -RA BKN014
       
EGXP 151150Z 17011KT 9999 OVC010 11/10 Q1019 GRN
TAF EGXP 151054Z 1512/1518 17007KT 9999 BKN010 
     PROB30 
     TEMPO 1512/1518 FEW010
       
EGPM 151150Z 18020KT 9999 FEW010 12/10 Q1010 NOSIG
TAF AMD EGPM 151200Z 1512/1520 19020KT 9999 SCT035 
     TEMPO 1515/1520 18027G37KT
       
EGOS 151150Z 16008KT 9999 SCT014 12/10 Q1018 GRN BECMG SCT016 WHT
TAF EGOS 151053Z 1512/1521 15008KT 9999 BKN016 
     TEMPO 1515/1518 FEW018 
     BECMG 1519/1521 7000 HZ BKN012
       
EGKA 151150Z 12007KT 5000 BR BKN007 13/12 Q1020
TAF EGKA 151108Z 1512/1519 16008KT 5000 BR BKN008 
     TEMPO 1512/1519 3000 BKN003
       
EGHI 151150Z 14005KT 100V190 8000 BKN008 13/12 Q1020
TAF EGHI 151109Z 1512/1521 15004KT 9999 BKN020 
     TEMPO 1512/1521 8000 BKN012 
     PROB30 
     TEMPO 1512/1521 BKN008
       
EGMC 151120Z 15007KT 4000 BR BKN004 12/10 Q1021
TAF AMD EGMC 151134Z 1512/1521 15007KT 9999 BKN012 
     TEMPO 1512/1517 3000 BR BKN004 
     BECMG 1517/1520 2000 BR BKN003 
     PROB30 1520/1521 1200 -DZ BKN001
       
EGDX 151150Z 11010KT 9999 SCT012 SCT020 12/10 Q1018 GRN
TAF EGDX 151027Z 1512/1518 13008KT 9999 FEW014 
     TEMPO 1512/1515 SCT014 
     BECMG 1515/1518 BKN009
       
EGSS 151150Z AUTO 16009KT 4200 HZ BKN004 OVC008 13/12 Q1021
TAF EGSS 151106Z 1512/1618 15008KT 7000 BKN014 
     TEMPO 1512/1515 9999 BKN018 
     BECMG 1515/1518 4000 BR BKN004 
     BECMG 1518/1521 0300 FG OVC000 
     PROB30 
     TEMPO 1521/1610 1500 BR OVC002 
     BECMG 1610/1613 3000 BR OVC002 
     PROB30 1613/1618 0300 FG OVC001
       
EGPO 151150Z 15009KT 9999 -RADZ BKN006 BKN023 10/10 Q1004
TAF AMD EGPO 151200Z 1512/1521 16012KT 9999 SCT020 
     BECMG 1512/1515 17022KT 
     TEMPO 1512/1518 4000 RA BKN014 
     TEMPO 1512/1515 17028G40KT BKN009 
     BECMG 1515/1518 20025G35KT
       
EGPB 151150Z 19015KT 9999 FEW007 11/10 Q1011
TAF EGPB 151100Z 1512/1521 20008KT 9999 SCT030 
     BECMG 1515/1518 18023KT 
     TEMPO 1515/1521 18029G39KT
       
EGNV 151150Z 17016KT 9999 FEW010 10/07 Q1017
TAF EGNV 151059Z 1512/1521 18009KT 9999 FEW010 
     PROB40 
     TEMPO 1512/1518 8000 BKN010 
     BECMG 1518/1521 6000 FEW003 BKN006 
     PROB40 1519/1521 3000 BR BKN003
       
EGPU 151150Z 15032KT 9000 FEW010 12/10 Q1004
TAF EGPU 151100Z 1512/1519 16030G45KT 9999 SCT025 
     BECMG 1512/1515 21025G35KT 
     TEMPO 1512/1519 3000 RADZ BKN007
       
EGXZ 151150Z 17006KT 8000 HZ BKN010 10/09 Q1018 GRN
TAF EGXZ 151045Z 1512/1518 16008KT 5000 BR FEW007 
     BECMG 1512/1513 8000 HZ 
     PROB30 
     TEMPO 1512/1518 BKN008
       
EGOV 151150Z 17022KT 9999 FEW020 14/09 Q1014 BLU
TAF EGOV 150747Z 1509/1518 17018KT 9999 FEW016 
     PROB40 
     TEMPO 1509/1516 17020G30KT 
     PROB30 
     TEMPO 1509/1511 SCT016 
     BECMG 1516/1518 BKN016
       
EGXW 151150Z 17011KT 9999 FEW006 BKN009 11/10 Q1019 GRN NOSIG
TAF EGXW 151051Z 1512/1606 17007KT 5000 BR BKN012 
     BECMG 1512/1514 9999 NSW 
     PROB30 
     TEMPO 1512/1517 FEW012 
     PROB40 
     TEMPO 1521/1606 3000 DZ BKN004
       
EGNO 151150Z 16010KT 9999 FEW014 12/09 Q1016
TAF EGNO 151059Z 1512/1519 15014KT 9999 FEW030 
     TEMPO 1517/1519 BKN010 
     PROB30 1518/1519 6000 BKN007
       
EGUW 151150Z 16006KT 8000 HZ SCT007 BKN018 13/12 Q1021 GRN BECMG FEW007 BLU
TAF EGUW 151033Z 1512/1521 17007KT 8000 BR BKN018 
     TEMPO 1512/1516 5000 SCT003 
     BECMG 1516/1519 3000 BR BKN003
       
EGPC 151150Z 16013KT CAVOK 12/10 Q1009
TAF EGPC 151100Z 1512/1521 16015KT 9999 FEW010 
     TEMPO 1512/1518 19022G35KT 
     BECMG 1518/1521 22012KT
       
EGXT 151150Z 18012KT 9999 FEW013 BKN015 13/10 Q1019 WHT
TAF EGXT 151058Z 1512/1518 18006KT 9999 BKN012 
     TEMPO 1512/1518 FEW012 
     BECMG 1516/1518 6000 HZ
       
EGOW 151150Z 16019G29KT 9999 FEW008 12/08 Q1016 BLU
TAF EGOW 151058Z 1512/1518 14012KT 9999 FEW012 
     PROB30 
     TEMPO 1512/1518 SCT012
       
EGDY 151150Z 14005KT 9999 BKN012 14/11 Q1019 GRN NOSIG
TAF EGDY 151040Z 1512/1521 16010KT 9000 HZ SCT012 
     BECMG 1517/1521 9999 SCT022